NORTHERN QUEENS  -  Freeze Warning Freeze Warning        SOUTHERN QUEENS  -  Freeze Warning Freeze Warning      

Active alerts

Northern Queens
  Details for Northern Queens Freeze Warning
Southern Queens
  Details for Southern Queens Freeze Warning


WXM80 ListenWXM80 Stop

You find our weather info also at:

UK Metoffice

WeatherCloud

Weather Underground

Northeastern Weather Network

AWEKAS

Citizen Weather Observer Program (CWOP)

HAMweather, WeatherForYou, PWS Weather


Weather Underground History page Text

Daily Summary for January 27, 2018 Units:  Metric    English   Both
« Previous Day
Next Day »
Daily Weekly Monthly Yearly Custom
  High: Low: Average:
Temperature: 12.3 °C -3.3 °C 5.8 °C
Dew Point: 6.5 °C -5.3 °C 1.7 °C
Humidity: 96 % 46 % 77 %
Wind Speed: 17.7 km/h 0 km/h 6.3 km/h
Wind Gust: 33.3 km/h - -
Wind:- - SSW
Pressure: 1028 hPa 1014.8 hPa -
Precipitation: 0 mm    
Historical Graphs
 
 
Tabular Data for January 27, 2018
Time Temperature Dew Point Pressure Wind Wind Speed Wind Gust Humidity Rainfall Rate (Hourly)
00:03 -1.8 °C -4.5 °C 1028 hPa SSW 2.1 km/h 4.8 km/h 82 % 0 mm
00:08 -1.8 °C -4.5 °C 1028 hPa SSW 0.8 km/h 5.6 km/h 82 % 0 mm
00:13 -1.8 °C -4.1 °C 1027.7 hPa SSW 0.6 km/h 5.6 km/h 84 % 0 mm
00:19 -1.8 °C -4.1 °C 1028 hPa SW 1.9 km/h 5.6 km/h 84 % 0 mm
00:24 -1.7 °C -3.9 °C 1027.7 hPa South 0.3 km/h 3.7 km/h 85 % 0 mm
00:29 -1.7 °C -3.9 °C 1027.7 hPa SSW 2.7 km/h 5.6 km/h 85 % 0 mm
00:34 -1.7 °C -3.8 °C 1027.7 hPa Calm   3.7 km/h 85 % 0 mm
00:39 -1.6 °C -3.7 °C 1027.7 hPa Calm   1.9 km/h 86 % 0 mm
00:44 -1.6 °C -3.7 °C 1027.7 hPa Calm     86 % 0 mm
00:49 -1.6 °C -3.8 °C 1027.3 hPa Calm     85 % 0 mm
00:54 -1.7 °C -3.8 °C 1027.3 hPa Calm     85 % 0 mm
00:59 -1.7 °C -4.1 °C 1027.3 hPa Calm     84 % 0 mm
01:04 -1.8 °C -4.1 °C 1027.3 hPa Calm     84 % 0 mm
01:09 -1.9 °C -4.2 °C 1027.3 hPa Calm     84 % 0 mm
01:14 -1.9 °C -4.3 °C 1027.3 hPa Calm     84 % 0 mm
01:19 -2 °C -4.3 °C 1027.3 hPa Calm     84 % 0 mm
01:24 -2.1 °C -4.4 °C 1027.3 hPa Calm     84 % 0 mm
01:29 -2.2 °C -4.5 °C 1027.3 hPa Calm     84 % 0 mm
01:34 -2.3 °C -4.8 °C 1027.3 hPa Calm     83 % 0 mm
01:39 -2.3 °C -4.8 °C 1027.3 hPa Calm     83 % 0 mm
01:44 -2.4 °C -4.8 °C 1027.3 hPa Calm     84 % 0 mm
01:50 -2.5 °C -5 °C 1027.3 hPa Calm     83 % 0 mm
01:55 -2.6 °C -4.9 °C 1027 hPa Calm   1.9 km/h 84 % 0 mm
02:00 -2.7 °C -5.2 °C 1027 hPa Calm     83 % 0 mm
02:05 -2.7 °C -5.2 °C 1027 hPa Calm     83 % 0 mm
02:10 -2.8 °C -5.3 °C 1027 hPa Calm     83 % 0 mm
02:15 -2.9 °C -5.2 °C 1027 hPa Calm     84 % 0 mm
02:20 -2.9 °C -5.2 °C 1027.3 hPa Calm     84 % 0 mm
02:25 -2.9 °C -5.1 °C 1027 hPa Calm     85 % 0 mm
02:30 -3 °C -5.2 °C 1027 hPa Calm     85 % 0 mm
02:35 -3.1 °C -5.2 °C 1026.6 hPa Calm     85 % 0 mm
02:40 -3.1 °C -5.1 °C 1026.6 hPa Calm     86 % 0 mm
02:45 -3.1 °C -5.1 °C 1026.6 hPa Calm     86 % 0 mm
02:50 -3.2 °C -5.2 °C 1026.6 hPa Calm     86 % 0 mm
02:55 -3.2 °C -5 °C 1026.6 hPa Calm     87 % 0 mm
03:00 -3.2 °C -5 °C 1026.3 hPa Calm     87 % 0 mm
03:05 -3.2 °C -4.9 °C 1026.3 hPa Calm     88 % 0 mm
03:10 -3.2 °C -5.1 °C 1026 hPa Calm     87 % 0 mm
03:15 -3.3 °C -5 °C 1026 hPa Calm     88 % 0 mm
03:21 -3.3 °C -5 °C 1026 hPa Calm     88 % 0 mm
03:26 -3.3 °C -5.1 °C 1026 hPa Calm     88 % 0 mm
03:31 -3.3 °C -5.1 °C 1025.6 hPa Calm     88 % 0 mm
03:36 -3.3 °C -4.8 °C 1025.6 hPa Calm     89 % 0 mm
03:41 -3.2 °C -4.6 °C 1025.6 hPa Calm     90 % 0 mm
03:46 -3.1 °C -4.3 °C 1025.6 hPa Calm     91 % 0 mm
03:51 -3.1 °C -4.3 °C 1025.6 hPa Calm     91 % 0 mm
03:56 -3 °C -4.3 °C 1025.6 hPa Calm     91 % 0 mm
04:01 -2.9 °C -4.2 °C 1025.6 hPa Calm     91 % 0 mm
04:06 -2.9 °C -4.2 °C 1025.6 hPa Calm     91 % 0 mm
04:11 -2.8 °C -3.9 °C 1025.6 hPa Calm     92 % 0 mm
04:16 -2.8 °C -3.9 °C 1025.6 hPa Calm     92 % 0 mm
04:21 -2.8 °C -3.9 °C 1025.6 hPa Calm     92 % 0 mm
04:26 -2.7 °C -3.8 °C 1025.3 hPa Calm     92 % 0 mm
04:31 -2.7 °C -3.8 °C 1025.3 hPa Calm     92 % 0 mm
04:36 -2.7 °C -3.8 °C 1025.3 hPa Calm     92 % 0 mm
04:41 -2.7 °C -3.8 °C 1025.3 hPa Calm     92 % 0 mm
04:46 -2.7 °C -3.8 °C 1024.9 hPa Calm     92 % 0 mm
04:52 -2.7 °C -3.8 °C 1025.3 hPa Calm     92 % 0 mm
04:57 -2.6 °C -3.7 °C 1025.3 hPa WNW 1 km/h 5.6 km/h 92 % 0 mm
05:02 -2.6 °C -3.7 °C 1025.3 hPa Calm   1.9 km/h 92 % 0 mm
05:07 -2.4 °C -3.4 °C 1025.3 hPa Calm   1.9 km/h 93 % 0 mm
05:12 -2.3 °C -3.3 °C 1025.3 hPa Calm   1.9 km/h 93 % 0 mm
05:17 -2.3 °C -3.3 °C 1024.9 hPa Calm     93 % 0 mm
05:22 -2.2 °C -3.2 °C 1024.9 hPa West 0.2 km/h 1.6 km/h 93 % 0 mm
05:27 -2 °C -2.8 °C 1024.9 hPa WSW 2.7 km/h 5.6 km/h 94 % 0 mm
05:32 -1.8 °C -2.7 °C 1024.9 hPa Calm     94 % 0 mm
05:37 -1.7 °C -2.5 °C 1024.9 hPa Calm     94 % 0 mm
05:42 -1.6 °C -2.4 °C 1024.9 hPa Calm     94 % 0 mm
05:44 -1.6 °C -2.4 °C 1024.9 hPa Calm     94 % 0 mm
05:49 -1.4 °C -2.3 °C 1024.9 hPa Calm     94 % 0 mm
05:54 -1.2 °C -1.9 °C 1024.6 hPa WSW 0.3 km/h 1.9 km/h 95 % 0 mm
05:59 -1 °C -1.7 °C 1024.9 hPa WSW 0.6 km/h 1.9 km/h 95 % 0 mm
06:04 -0.9 °C -1.7 °C 1024.6 hPa Calm   1.9 km/h 95 % 0 mm
06:09 -0.9 °C -1.7 °C 1024.6 hPa SW 0.5 km/h 1.9 km/h 95 % 0 mm
06:14 -0.9 °C -1.6 °C 1024.6 hPa SW 1.3 km/h 3.2 km/h 95 % 0 mm
06:19 -0.8 °C -1.6 °C 1024.3 hPa SSW 0.3 km/h 3.7 km/h 95 % 0 mm
06:24 -0.8 °C -1.5 °C 1024.3 hPa SSW 5.5 km/h 9.3 km/h 95 % 0 mm
06:29 -0.6 °C -1.3 °C 1024.3 hPa SW 7.9 km/h 9.3 km/h 95 % 0 mm
06:34 -0.2 °C -0.8 °C 1024.3 hPa SW 5.5 km/h 6.4 km/h 96 % 0 mm
06:40 0.1 °C -0.5 °C 1024.3 hPa SW 7.9 km/h 9.3 km/h 96 % 0 mm
06:44 0.4 °C -0.1 °C 1024.6 hPa WSW 6.4 km/h 16.7 km/h 96 % 0 mm
06:50 0.8 °C 0.2 °C 1024.6 hPa SW 5 km/h 14.8 km/h 96 % 0 mm
06:55 1.1 °C 0.5 °C 1024.6 hPa WSW 5.8 km/h 16.7 km/h 96 % 0 mm
07:00 1.2 °C 0.7 °C 1024.6 hPa WSW 5 km/h 11.1 km/h 96 % 0 mm
07:05 1.3 °C 0.8 °C 1024.6 hPa WSW 1.6 km/h 11.1 km/h 96 % 0 mm
07:10 1.4 °C 0.9 °C 1024.6 hPa SW 5.6 km/h 9.7 km/h 96 % 0 mm
07:15 1.6 °C 1 °C 1024.6 hPa SSW 3.5 km/h 11.1 km/h 96 % 0 mm
07:20 1.6 °C 1.1 °C 1024.6 hPa WSW 3.7 km/h 5.6 km/h 96 % 0 mm
07:25 1.7 °C 1.1 °C 1024.6 hPa SSW 3.9 km/h 11.3 km/h 96 % 0 mm
07:30 1.8 °C 1.2 °C 1024.6 hPa SW 3.9 km/h 9.3 km/h 96 % 0 mm
07:35 1.8 °C 1.3 °C 1024.6 hPa SSW 4 km/h 9.3 km/h 96 % 0 mm
07:40 1.9 °C 1.3 °C 1024.6 hPa SW 3.2 km/h 5.6 km/h 96 % 0 mm
07:45 1.9 °C 1.4 °C 1024.6 hPa WSW 1.3 km/h 5.6 km/h 96 % 0 mm
07:50 2 °C 1.4 °C 1024.6 hPa WSW 6.8 km/h 9.3 km/h 96 % 0 mm
07:55 2.1 °C 1.5 °C 1024.3 hPa WSW 5.3 km/h 9.3 km/h 96 % 0 mm
08:00 2.1 °C 1.6 °C 1024.3 hPa SW 5.1 km/h 6.4 km/h 96 % 0 mm
08:05 2.3 °C 1.7 °C 1024.3 hPa WSW 1.4 km/h 7.4 km/h 96 % 0 mm
08:10 2.4 °C 1.9 °C 1024.3 hPa SW 6.6 km/h 14.8 km/h 96 % 0 mm
08:15 2.6 °C 2.1 °C 1024.3 hPa SSW 5.3 km/h 11.3 km/h 96 % 0 mm
08:21 2.8 °C 2.2 °C 1024.3 hPa SW 5.3 km/h 14.5 km/h 96 % 0 mm
08:26 2.9 °C 2.4 °C 1024.3 hPa SW 4.8 km/h 14.5 km/h 96 % 0 mm
08:31 3.1 °C 2.5 °C 1024.3 hPa SW 8 km/h 14.5 km/h 96 % 0 mm
08:36 3.2 °C 2.7 °C 1024.3 hPa SW 1.6 km/h 11.3 km/h 96 % 0 mm
08:41 3.4 °C 2.8 °C 1024.3 hPa SW 4.8 km/h 12.9 km/h 96 % 0 mm
08:46 3.7 °C 2.9 °C 1024.3 hPa WSW 10.8 km/h 14.5 km/h 95 % 0 mm
08:51 3.9 °C 2.9 °C 1023.9 hPa SW 8 km/h 14.5 km/h 93 % 0 mm
08:56 4.2 °C 3 °C 1023.9 hPa SW 8 km/h 19.3 km/h 92 % 0 mm
09:01 4.6 °C 2.9 °C 1023.9 hPa WSW 13 km/h 16.1 km/h 89 % 0 mm
09:06 4.9 °C 2.9 °C 1023.9 hPa SW 3.2 km/h 19.3 km/h 87 % 0 mm
09:11 5.3 °C 2.8 °C 1023.9 hPa SW 11.3 km/h 19.3 km/h 84 % 0 mm
09:16 5.6 °C 2.4 °C 1023.9 hPa SW 14.8 km/h 20.4 km/h 80 % 0 mm
09:21 5.9 °C 2.4 °C 1023.9 hPa SW 7.2 km/h 24.1 km/h 78 % 0 mm
09:26 6.2 °C 2.1 °C 1023.9 hPa SW 7.1 km/h 16.7 km/h 75 % 0 mm
09:31 6.6 °C 2.1 °C 1023.9 hPa SSW 12.7 km/h 24.1 km/h 73 % 0 mm
09:36 6.9 °C 2 °C 1023.6 hPa SSW 11.9 km/h 24.1 km/h 71 % 0 mm
09:41 7.1 °C 1.6 °C 1023.9 hPa SSW 13.5 km/h 24.1 km/h 68 % 0 mm
09:46 7.4 °C 1.7 °C 1023.6 hPa WSW 13.2 km/h 17.7 km/h 67 % 0 mm
09:51 7.7 °C 1.3 °C 1023.9 hPa SSW 10.8 km/h 31.5 km/h 64 % 0 mm
09:56 7.9 °C 1.3 °C 1023.6 hPa SSW 12.9 km/h 33.3 km/h 63 % 0 mm
10:01 8.2 °C 1.4 °C 1023.6 hPa SW 13.4 km/h 20.4 km/h 62 % 0 mm
10:06 8.5 °C 1.4 °C 1023.6 hPa SW 7.4 km/h 18.5 km/h 61 % 0 mm
10:11 8.8 °C 0.9 °C 1023.2 hPa SSW 14 km/h 20.4 km/h 58 % 0 mm
10:16 9.1 °C 1 °C 1023.2 hPa SSE 14.8 km/h 19.3 km/h 57 % 0 mm
10:21 9.4 °C 0.8 °C 1023.2 hPa SW 12.9 km/h 20.4 km/h 55 % 0 mm
10:26 9.7 °C 0.6 °C 1023.2 hPa SSW 11.4 km/h 20.4 km/h 53 % 0 mm
10:31 9.8 °C 0.7 °C 1023.2 hPa SSW 13 km/h 22.2 km/h 53 % 0 mm
10:36 10 °C 0.6 °C 1023.2 hPa SW 11.3 km/h 31.5 km/h 52 % 0 mm
10:42 10.2 °C 0.8 °C 1023.2 hPa SW 14.2 km/h 25.9 km/h 52 % 0 mm
10:47 10.4 °C 0.7 °C 1022.9 hPa SSW 16.7 km/h 24.1 km/h 51 % 0 mm
10:52 10.4 °C 0.2 °C 1022.6 hPa SW 17.7 km/h 29.6 km/h 49 % 0 mm
10:57 10.4 °C -0.1 °C 1022.6 hPa SW 10.8 km/h 27.8 km/h 48 % 0 mm
10:58 10.4 °C -0.1 °C 1022.6 hPa WSW 13.8 km/h 24.1 km/h 48 % 0 mm
11:03 10.5 °C -0.1 °C 1022.6 hPa WSW 11.7 km/h 20.9 km/h 48 % 0 mm
11:08 10.6 °C 0 °C 1022.6 hPa SW 10 km/h 19.3 km/h 48 % 0 mm
11:13 10.6 °C -0.3 °C 1022.2 hPa WSW 12.4 km/h 22.2 km/h 47 % 0 mm
11:18 10.6 °C -0.6 °C 1022.2 hPa SSW 9.7 km/h 27.8 km/h 46 % 0 mm
11:24 10.6 °C -0.3 °C 1021.9 hPa SSW 10.6 km/h 25.9 km/h 47 % 0 mm
11:26 10.6 °C -0.3 °C 1021.9 hPa WSW 5.3 km/h 13 km/h 47 % 0 mm
11:30 10.7 °C -0.2 °C 1021.9 hPa SSW 16.9 km/h 24.1 km/h 47 % 0 mm
11:36 10.7 °C -0.2 °C 1021.9 hPa SW 11.3 km/h 27.4 km/h 47 % 0 mm
11:41 10.8 °C -0.1 °C 1021.6 hPa SW 9.7 km/h 25.7 km/h 47 % 0 mm
11:46 10.8 °C -0.1 °C 1021.6 hPa WSW 10.9 km/h 20.4 km/h 47 % 0 mm
11:51 10.9 °C 0 °C 1021.6 hPa SW 9.7 km/h 24.1 km/h 47 % 0 mm
11:56 10.9 °C 0.3 °C 1021.2 hPa SW 11.3 km/h 20.9 km/h 48 % 0 mm
12:01 10.7 °C -0.2 °C 1021.2 hPa WSW 12.1 km/h 25.9 km/h 47 % 0 mm
12:06 10.7 °C 0.4 °C 1021.2 hPa SSW 8.2 km/h 14.8 km/h 49 % 0 mm
12:11 10.7 °C 0.4 °C 1020.9 hPa South 8.5 km/h 20.4 km/h 49 % 0 mm
12:16 10.8 °C 0.6 °C 1020.9 hPa South 3.9 km/h 14.8 km/h 49 % 0 mm
12:21 10.9 °C 0.6 °C 1020.9 hPa SSW 11.6 km/h 22.2 km/h 49 % 0 mm
12:26 11.1 °C 0.5 °C 1020.9 hPa WSW 8.4 km/h 13 km/h 48 % 0 mm
12:31 11.2 °C 0.8 °C 1020.9 hPa SSW 4.7 km/h 8 km/h 49 % 0 mm
12:36 11.3 °C 0.9 °C 1020.5 hPa SSE 10.5 km/h 16.7 km/h 49 % 0 mm
12:41 11.4 °C 0.8 °C 1020.5 hPa SSW 7.6 km/h 16.7 km/h 48 % 0 mm
12:46 11.4 °C 0.8 °C 1020.5 hPa SW 7.1 km/h 14.5 km/h 48 % 0 mm
12:51 11.5 °C 0.8 °C 1020.2 hPa South 6.3 km/h 13 km/h 48 % 0 mm
12:56 11.6 °C 0.6 °C 1020.2 hPa South 8.9 km/h 29.6 km/h 47 % 0 mm
13:01 11.7 °C 1 °C 1020.2 hPa SSW 8.5 km/h 14.8 km/h 48 % 0 mm
13:06 11.7 °C 1 °C 1020.2 hPa SSW 9.2 km/h 16.7 km/h 48 % 0 mm
13:11 11.7 °C 1 °C 1019.9 hPa SSW 9.7 km/h 13 km/h 48 % 0 mm
13:17 11.8 °C 1.4 °C 1019.9 hPa South 5.5 km/h 8 km/h 49 % 0 mm
13:22 11.9 °C 1.8 °C 1019.9 hPa SW 8.4 km/h 22.2 km/h 50 % 0 mm
13:27 11.9 °C 2.1 °C 1019.9 hPa South 4.3 km/h 16.7 km/h 51 % 0 mm
13:32 12.1 °C 2.5 °C 1019.9 hPa WSW 7.6 km/h 14.8 km/h 52 % 0 mm
13:37 12.1 °C 2.8 °C 1019.5 hPa SSE 7.6 km/h 13 km/h 53 % 0 mm
13:42 12.2 °C 3.4 °C 1019.2 hPa South 3.4 km/h 7.4 km/h 55 % 0 mm
13:47 12.3 °C 3.6 °C 1019.2 hPa South 0.5 km/h 5.6 km/h 55 % 0 mm
13:52 12.3 °C 4.1 °C 1018.8 hPa SSW 10.8 km/h 18.5 km/h 57 % 0 mm
13:57 12.2 °C 4.2 °C 1018.8 hPa SSW 11.6 km/h 24.1 km/h 58 % 0 mm
14:02 12 °C 4.2 °C 1018.8 hPa SSW 11.7 km/h 16.7 km/h 59 % 0 mm
14:07 11.8 °C 4.3 °C 1018.8 hPa South 5.1 km/h 16.7 km/h 60 % 0 mm
14:12 11.7 °C 4.7 °C 1018.5 hPa South 8.7 km/h 13 km/h 62 % 0 mm
14:17 11.7 °C 4.8 °C 1018.5 hPa WSW 5.6 km/h 13 km/h 63 % 0 mm
14:22 11.6 °C 5 °C 1018.5 hPa South 7.2 km/h 13 km/h 64 % 0 mm
14:27 11.5 °C 4.9 °C 1018.5 hPa SSW 6.9 km/h 11.1 km/h 64 % 0 mm
14:32 11.5 °C 5.2 °C 1018.5 hPa SW 0.5 km/h 11.1 km/h 65 % 0 mm
14:37 11.5 °C 5.2 °C 1018.2 hPa SSW 3.4 km/h 14.8 km/h 65 % 0 mm
14:43 11.5 °C 5.4 °C 1018.5 hPa SSW 5 km/h 14.8 km/h 66 % 0 mm
14:48 11.5 °C 5.4 °C 1018.2 hPa SSW 7.2 km/h 16.7 km/h 66 % 0 mm
14:53 11.4 °C 5.3 °C 1018.2 hPa South 5.8 km/h 11.1 km/h 66 % 0 mm
14:58 11.4 °C 5.5 °C 1018.2 hPa SSW 10 km/h 16.7 km/h 67 % 0 mm
15:03 11.3 °C 5.4 °C 1018.2 hPa SSW 5.8 km/h 9.3 km/h 67 % 0 mm
15:08 11.3 °C 5.4 °C 1018.2 hPa South 12.6 km/h 18.5 km/h 67 % 0 mm
15:13 11.2 °C 5.5 °C 1017.8 hPa SSW 6.8 km/h 13 km/h 68 % 0 mm
15:18 11.1 °C 5.4 °C 1018.2 hPa South 9 km/h 14.8 km/h 68 % 0 mm
15:23 10.9 °C 5.4 °C 1017.8 hPa SSW 8 km/h 13 km/h 69 % 0 mm
15:28 10.8 °C 5.4 °C 1017.8 hPa South 10.8 km/h 14.5 km/h 69 % 0 mm
15:33 10.6 °C 5.4 °C 1017.8 hPa SSW 11.7 km/h 22.2 km/h 70 % 0 mm
15:38 10.5 °C 5.3 °C 1017.8 hPa South 7.7 km/h 14.5 km/h 70 % 0 mm
15:43 10.4 °C 5.3 °C 1017.5 hPa SSE 4.8 km/h 11.1 km/h 71 % 0 mm
15:49 10.3 °C 5.2 °C 1017.8 hPa SSW 7.1 km/h 11.1 km/h 71 % 0 mm
15:54 10.2 °C 5.4 °C 1017.8 hPa SSW 3.9 km/h 9.3 km/h 72 % 0 mm
15:59 10.2 °C 5.3 °C 1017.8 hPa SW 7.9 km/h 24.1 km/h 72 % 0 mm
16:09 10 °C 5.4 °C 1017.8 hPa South 12.2 km/h 27.8 km/h 73 % 0 mm
16:14 9.9 °C 5.3 °C 1017.8 hPa SW 12.4 km/h 20.9 km/h 73 % 0 mm
16:19 9.8 °C 5.2 °C 1017.8 hPa SSW 6.4 km/h 12.9 km/h 73 % 0 mm
16:24 9.8 °C 5.4 °C 1017.8 hPa South 6 km/h 12.9 km/h 74 % 0 mm
16:29 9.7 °C 5.3 °C 1017.5 hPa South 9.3 km/h 16.7 km/h 74 % 0 mm
16:34 9.7 °C 5.5 °C 1017.5 hPa SW 3.5 km/h 7.4 km/h 75 % 0 mm
16:39 9.7 °C 5.4 °C 1017.5 hPa South 7.6 km/h 22.5 km/h 75 % 0 mm
16:40 9.6 °C 5.4 °C 1017.5 hPa SSW 11.1 km/h 22.2 km/h 75 % 0 mm
16:45 9.6 °C 5.4 °C 1017.5 hPa SSW 9.2 km/h 18.5 km/h 75 % 0 mm
16:50 9.6 °C 5.3 °C 1017.2 hPa SW 8.4 km/h 16.7 km/h 75 % 0 mm
16:55 9.6 °C 5.6 °C 1017.2 hPa SSW 7.7 km/h 14.8 km/h 76 % 0 mm
17:00 9.5 °C 5.5 °C 1017.5 hPa SSW 4.5 km/h 11.3 km/h 76 % 0 mm
17:05 9.5 °C 5.5 °C 1017.2 hPa South 7.9 km/h 12.9 km/h 76 % 0 mm
17:10 9.4 °C 5.4 °C 1017.2 hPa South 7.4 km/h 12.9 km/h 76 % 0 mm
17:15 9.4 °C 5.6 °C 1017.2 hPa SSW 7.7 km/h 16.1 km/h 77 % 0 mm
17:20 9.4 °C 5.6 °C 1017.2 hPa South 7.6 km/h 14.8 km/h 77 % 0 mm
17:25 9.3 °C 5.5 °C 1017.2 hPa SSW 6.8 km/h 14.8 km/h 77 % 0 mm
17:30 9.3 °C 5.5 °C 1016.8 hPa South 7.7 km/h 16.7 km/h 77 % 0 mm
17:35 9.3 °C 5.6 °C 1017.2 hPa SSW 8 km/h 14.5 km/h 78 % 0 mm
17:40 9.2 °C 5.6 °C 1017.2 hPa South 7.9 km/h 11.1 km/h 78 % 0 mm
17:45 9.2 °C 5.6 °C 1017.2 hPa South 3.2 km/h 19.3 km/h 78 % 0 mm
17:50 9.1 °C 5.5 °C 1017.2 hPa SSW 4.8 km/h 16.1 km/h 78 % 0 mm
17:55 9.1 °C 5.6 °C 1017.2 hPa SSW 8.9 km/h 12.9 km/h 79 % 0 mm
18:01 9 °C 5.6 °C 1017.2 hPa SSW 8.5 km/h 20.4 km/h 79 % 0 mm
18:06 9 °C 5.6 °C 1017.2 hPa SSW 6.3 km/h 16.7 km/h 79 % 0 mm
18:11 9 °C 5.6 °C 1017.2 hPa South 8.2 km/h 13 km/h 79 % 0 mm
18:16 9.1 °C 5.8 °C 1017.2 hPa SSW 9 km/h 14.8 km/h 80 % 0 mm
18:21 9.1 °C 5.8 °C 1017.2 hPa South 12.6 km/h 20.4 km/h 80 % 0 mm
18:26 9.2 °C 5.9 °C 1017.5 hPa SSW 13.4 km/h 18.5 km/h 80 % 0 mm
18:31 9.2 °C 5.8 °C 1017.5 hPa SW 7.2 km/h 14.8 km/h 79 % 0 mm
18:36 9.2 °C 5.8 °C 1017.5 hPa South 6.1 km/h 16.7 km/h 79 % 0 mm
18:41 9.3 °C 5.8 °C 1017.5 hPa SSW 8.7 km/h 20.4 km/h 79 % 0 mm
18:46 9.3 °C 5.8 °C 1017.5 hPa SW 10.5 km/h 18.5 km/h 79 % 0 mm
18:51 9.3 °C 5.9 °C 1017.5 hPa SSW 11.1 km/h 16.7 km/h 79 % 0 mm
18:56 9.4 °C 5.9 °C 1017.5 hPa South 6.8 km/h 13 km/h 79 % 0 mm
19:01 9.4 °C 5.9 °C 1017.5 hPa SSW 11.9 km/h 16.7 km/h 79 % 0 mm
19:06 9.4 °C 5.9 °C 1017.5 hPa SSW 4.7 km/h 11.1 km/h 79 % 0 mm
19:11 9.4 °C 6 °C 1017.5 hPa SW 5.8 km/h 11.1 km/h 79 % 0 mm
19:16 9.4 °C 5.9 °C 1017.5 hPa SSW 8.4 km/h 18.5 km/h 79 % 0 mm
19:21 9.4 °C 6 °C 1017.5 hPa South 7.4 km/h 13 km/h 79 % 0 mm
19:26 9.4 °C 5.9 °C 1017.2 hPa SSE 5.3 km/h 14.8 km/h 79 % 0 mm
19:32 9.4 °C 5.9 °C 1017.2 hPa SSW 9.3 km/h 20.9 km/h 79 % 0 mm
19:37 9.4 °C 5.9 °C 1017.2 hPa SSW 9 km/h 13 km/h 79 % 0 mm
19:42 9.4 °C 6 °C 1017.2 hPa South 8.5 km/h 18.5 km/h 79 % 0 mm
19:47 9.5 °C 6.1 °C 1017.2 hPa South 7.7 km/h 16.7 km/h 79 % 0 mm
19:52 9.5 °C 5.8 °C 1017.2 hPa South 7.1 km/h 16.7 km/h 78 % 0 mm
19:57 9.5 °C 5.8 °C 1017.2 hPa South 11.1 km/h 18.5 km/h 78 % 0 mm
20:02 9.6 °C 5.9 °C 1017.2 hPa South 6.4 km/h 13 km/h 78 % 0 mm
20:07 9.6 °C 5.9 °C 1017.2 hPa SSE 10.8 km/h 18.5 km/h 78 % 0 mm
20:12 9.6 °C 5.9 °C 1017.2 hPa South 6.3 km/h 9.3 km/h 78 % 0 mm
20:17 9.6 °C 5.9 °C 1017.2 hPa SSW 7.2 km/h 14.8 km/h 78 % 0 mm
20:22 9.6 °C 5.9 °C 1016.8 hPa South 4.5 km/h 11.3 km/h 78 % 0 mm
20:27 9.5 °C 5.8 °C 1016.8 hPa South 5 km/h 9.3 km/h 78 % 0 mm
20:32 9.4 °C 5.8 °C 1016.8 hPa SSW 6 km/h 16.7 km/h 78 % 0 mm
20:37 9.4 °C 5.8 °C 1016.8 hPa SSW 8 km/h 13 km/h 78 % 0 mm
20:42 9.4 °C 5.8 °C 1016.8 hPa South 6.8 km/h 14.8 km/h 78 % 0 mm
20:47 9.4 °C 5.8 °C 1016.8 hPa South 10.1 km/h 18.5 km/h 78 % 0 mm
20:52 9.4 °C 5.7 °C 1016.8 hPa SSW 6.6 km/h 18.5 km/h 78 % 0 mm
20:57 9.4 °C 5.7 °C 1016.8 hPa SSW 6.8 km/h 11.1 km/h 78 % 0 mm
21:02 9.4 °C 5.7 °C 1016.5 hPa South 9.8 km/h 11.1 km/h 78 % 0 mm
21:08 9.4 °C 5.6 °C 1016.5 hPa South 9.7 km/h 18.5 km/h 77 % 0 mm
21:13 9.4 °C 5.6 °C 1016.5 hPa South 10.3 km/h 14.8 km/h 77 % 0 mm
21:18 9.4 °C 5.6 °C 1016.5 hPa SSW 7.2 km/h 22.2 km/h 77 % 0 mm
21:23 9.4 °C 5.6 °C 1016.1 hPa SSW 15 km/h 31.5 km/h 77 % 0 mm
21:28 9.6 °C 5.7 °C 1016.1 hPa SSW 9.7 km/h 18.5 km/h 77 % 0 mm
21:33 9.7 °C 5.8 °C 1016.1 hPa SSW 9.7 km/h 16.7 km/h 77 % 0 mm
21:38 9.8 °C 5.7 °C 1015.8 hPa SSW 10.8 km/h 18.5 km/h 76 % 0 mm
21:43 9.8 °C 5.7 °C 1015.8 hPa SSW 7.6 km/h 13 km/h 76 % 0 mm
21:48 9.8 °C 5.8 °C 1015.8 hPa SSW 11.9 km/h 16.7 km/h 76 % 0 mm
21:53 9.9 °C 5.8 °C 1015.8 hPa SSW 11.3 km/h 18.5 km/h 76 % 0 mm
21:58 9.9 °C 5.7 °C 1015.8 hPa SSW 11.3 km/h 16.7 km/h 75 % 0 mm
22:03 9.9 °C 5.7 °C 1015.5 hPa SSW 12.9 km/h 18.5 km/h 75 % 0 mm
22:08 10 °C 5.8 °C 1015.5 hPa SW 14.2 km/h 24.1 km/h 75 % 0 mm
22:13 10 °C 5.8 °C 1015.5 hPa South 11.6 km/h 19.3 km/h 75 % 0 mm
22:18 10 °C 5.8 °C 1015.5 hPa South 13.8 km/h 25.7 km/h 75 % 0 mm
22:23 9.9 °C 5.7 °C 1015.5 hPa SSW 10.6 km/h 18.5 km/h 75 % 0 mm
22:28 9.9 °C 5.8 °C 1015.5 hPa SSW 10.8 km/h 16.1 km/h 76 % 0 mm
22:33 9.8 °C 5.8 °C 1015.1 hPa SSW 12.1 km/h 14.8 km/h 76 % 0 mm
22:38 9.8 °C 5.9 °C 1015.5 hPa SSW 10.1 km/h 17.7 km/h 77 % 0 mm
22:43 9.7 °C 5.9 °C 1015.5 hPa SSW 12.2 km/h 12.9 km/h 77 % 0 mm
22:49 9.7 °C 5.8 °C 1015.5 hPa South 9.5 km/h 16.7 km/h 77 % 0 mm
22:54 9.6 °C 5.9 °C 1015.5 hPa SSW 8.7 km/h 18.5 km/h 78 % 0 mm
22:59 9.6 °C 5.9 °C 1015.5 hPa SE 7.7 km/h 18.5 km/h 78 % 0 mm
23:04 9.6 °C 6.1 °C 1015.5 hPa SW 8.7 km/h 18.5 km/h 79 % 0 mm
23:09 9.6 °C 6.1 °C 1015.5 hPa South 11.7 km/h 18.5 km/h 79 % 0 mm
23:14 9.6 °C 6.1 °C 1015.5 hPa SSW 9.8 km/h 19.3 km/h 79 % 0 mm
23:19 9.6 °C 6.2 °C 1015.5 hPa WSW 7.1 km/h 12.9 km/h 79 % 0 mm
23:24 9.7 °C 6.4 °C 1015.5 hPa SSW 7.9 km/h 16.1 km/h 80 % 0 mm
23:29 9.7 °C 6.4 °C 1015.5 hPa South 11.9 km/h 18.5 km/h 80 % 0 mm
23:34 9.7 °C 6.4 °C 1015.5 hPa South 7.1 km/h 11.3 km/h 80 % 0 mm
23:39 9.7 °C 6.4 °C 1015.1 hPa South 10.9 km/h 22.5 km/h 80 % 0 mm
23:44 9.7 °C 6.4 °C 1015.1 hPa SSW 9 km/h 14.8 km/h 80 % 0 mm
23:49 9.8 °C 6.5 °C 1015.1 hPa South 11.6 km/h 18.5 km/h 80 % 0 mm
23:54 9.8 °C 6.5 °C 1015.1 hPa SSW 10.1 km/h 18.5 km/h 80 % 0 mm
23:59 9.8 °C 6.5 °C 1014.8 hPa SSW 9.2 km/h 14.8 km/h 80 % 0 mm
Crab Meadow Weather
Compliments of Weather Underground - 3 mb

Script developed by  Jim McMurry - jmcmurry@mwt.net Adapted for the template by  Wim van der Kuil - Leuven-Template.eu

Lightning: Lightning is equivalent to the electric power of 100 million light bulbs in your face.